Norse Mersey — IBEN — position and weather

sailwx.info

Track history (hours):
 
Tides and Currents Weather Stations Pressure Air Temp Water Temp Dewpoint Dewpoint Depression Visibility Wind Speed Wind Dir Waves Ship Positions

Norse Mersey

Operator: Norse Merchant Ferries

Last reported at 2016-Jul-28 22:33 UTC. Time now 2016-Jul-29 04:02 UTC.
Position N 38°26' E 015°39'.

Length 175 m; draft 4.8 m.

Type: Passenger vessel. MMSI: 247026000.

Date/timePositionNaut miles runAvg speedWind from/ knotsBaromVisibWave heightAir tempDewpointWater temp
2016-Jul-28 22:33N 38°26' E 015°39'1211.7
2016-Jul-28 21:33N 38°14' E 015°38'1414.3
2016-Jul-28 20:33N 38°00' E 015°32'23 2.0
2016-Jul-28 09:11N 37°41' E 015°18'1015.9
2016-Jul-28 08:33N 37°50' E 015°23'1615.5
2016-Jul-28 07:33N 38°04' E 015°32'1615.6
2016-Jul-28 06:34N 38°18' E 015°40'1615.6
2016-Jul-28 05:33N 38°32' E 015°34'1615.4
2016-Jul-28 04:30N 38°48' E 015°27'12 0.4
2016-Jul-27 01:28N 38°59' E 015°22'1415.2
2016-Jul-27 00:33N 38°47' E 015°29'1515.3
2016-Jul-26 23:34N 38°32' E 015°36'1515.0
2016-Jul-26 22:33N 38°18' E 015°43'1414.1
2016-Jul-26 21:34N 38°06' E 015°35'1615.2
2016-Jul-26 20:29N 37°51' E 015°25'6 0.5
2016-Jul-26 07:32N 37°46' E 015°21'1514.9
2016-Jul-26 06:33N 37°59' E 015°29'1515.3
2016-Jul-26 05:33N 38°13' E 015°36'1312.9
2016-Jul-26 04:33N 38°26' E 015°36'1514.9
2016-Jul-26 03:33N 38°40' E 015°29'1514.9
2016-Jul-26 02:33N 38°55' E 015°23'9115.1
2016-Jul-25 20:33N 40°20' E 014°45'12 0.4
2016-Jul-24 10:08N 40°32' E 014°44'915.6
2016-Jul-24 09:34N 40°24' E 014°45'8115.8
2016-Jul-24 04:24N 39°06' E 015°18'1415.8
2016-Jul-24 03:29N 38°53' E 015°25'1515.9
2016-Jul-24 02:32N 38°39' E 015°32'1615.8
2016-Jul-24 01:33N 38°25' E 015°40'1111.5
2016-Jul-24 00:34N 38°13' E 015°37'1615.8
2016-Jul-23 23:33N 37°59' E 015°29'5 0.3
2016-Jul-23 08:22N 37°54' E 015°26'1215.2
2016-Jul-23 07:33N 38°05' E 015°33'1412.9
2016-Jul-23 06:27N 38°18' E 015°40'2915.3
2016-Jul-23 04:33N 38°46' E 015°27'1615.6
2016-Jul-23 03:33N 39°00' E 015°20'7615.2
2016-Jul-22 22:33N 40°12' E 014°47'71 3.4
2016-Jul-22 01:33N 39°05' E 015°20'1615.4
2016-Jul-22 00:31N 38°50' E 015°26'1515.4
2016-Jul-21 23:33N 38°36' E 015°34'1515.1
2016-Jul-21 22:33N 38°22' E 015°41'1111.5
2016-Jul-21 21:33N 38°11' E 015°37'1313.5
2016-Jul-21 20:33N 37°59' E 015°31'18 1.5
2016-Jul-21 08:32N 37°43' E 015°19'1616.5
2016-Jul-21 07:33N 37°58' E 015°28'1515.1
2016-Jul-21 06:34N 38°12' E 015°36'1313.2
2016-Jul-21 05:33N 38°25' E 015°37'1615.4
2016-Jul-21 04:33N 38°39' E 015°31'2015.3
2016-Jul-21 03:15N 38°58' E 015°22'1 0.0
2016-Jul-20 02:06N 38°57' E 015°23'1015.2
2016-Jul-20 01:27N 38°48' E 015°28'1415.4
2016-Jul-20 00:33N 38°35' E 015°34'1515.1
2016-Jul-19 23:33N 38°21' E 015°41'1211.9
2016-Jul-19 22:33N 38°10' E 015°37'1515.3
2016-Jul-19 21:33N 37°56' E 015°29'14 1.1
2016-Jul-19 08:07N 37°44' E 015°20'916.2
2016-Jul-19 07:32N 37°52' E 015°25'3812.8
2016-Jul-19 04:33N 38°30' E 015°35'1515.2
2016-Jul-19 03:33N 38°44' E 015°28'1615.4
2016-Jul-19 02:31N 38°59' E 015°21'  
Track history (hours):
 
Tides and Currents Weather Stations Pressure Air Temp Water Temp Dewpoint Dewpoint Depression Visibility Wind Speed Wind Dir Waves Ship Positions

Norse Mersey

Operator: Norse Merchant Ferries

Last reported at 2016-Jul-28 22:33 UTC. Time now 2016-Jul-29 04:02 UTC.
Position N 38°26' E 015°39'.

Length 175 m; draft 4.8 m.

Type: Passenger vessel. MMSI: 247026000.

Date/timePositionNaut miles runAvg speedWind from/ knotsBaromVisibWave heightAir tempDewpointWater temp
2016-Jul-28 22:33N 38°26' E 015°39'1211.7
2016-Jul-28 21:33N 38°14' E 015°38'1414.3
2016-Jul-28 20:33N 38°00' E 015°32'23 2.0
2016-Jul-28 09:11N 37°41' E 015°18'1015.9
2016-Jul-28 08:33N 37°50' E 015°23'1615.5
2016-Jul-28 07:33N 38°04' E 015°32'1615.6
2016-Jul-28 06:34N 38°18' E 015°40'1615.6
2016-Jul-28 05:33N 38°32' E 015°34'1615.4
2016-Jul-28 04:30N 38°48' E 015°27'12 0.4
2016-Jul-27 01:28N 38°59' E 015°22'1415.2
2016-Jul-27 00:33N 38°47' E 015°29'1515.3
2016-Jul-26 23:34N 38°32' E 015°36'1515.0
2016-Jul-26 22:33N 38°18' E 015°43'1414.1
2016-Jul-26 21:34N 38°06' E 015°35'1615.2
2016-Jul-26 20:29N 37°51' E 015°25'6 0.5
2016-Jul-26 07:32N 37°46' E 015°21'1514.9
2016-Jul-26 06:33N 37°59' E 015°29'1515.3
2016-Jul-26 05:33N 38°13' E 015°36'1312.9
2016-Jul-26 04:33N 38°26' E 015°36'1514.9
2016-Jul-26 03:33N 38°40' E 015°29'1514.9
2016-Jul-26 02:33N 38°55' E 015°23'9115.1
2016-Jul-25 20:33N 40°20' E 014°45'12 0.4
2016-Jul-24 10:08N 40°32' E 014°44'915.6
2016-Jul-24 09:34N 40°24' E 014°45'8115.8
2016-Jul-24 04:24N 39°06' E 015°18'1415.8
2016-Jul-24 03:29N 38°53' E 015°25'1515.9
2016-Jul-24 02:32N 38°39' E 015°32'1615.8
2016-Jul-24 01:33N 38°25' E 015°40'1111.5
2016-Jul-24 00:34N 38°13' E 015°37'1615.8
2016-Jul-23 23:33N 37°59' E 015°29'5 0.3
2016-Jul-23 08:22N 37°54' E 015°26'1215.2
2016-Jul-23 07:33N 38°05' E 015°33'1412.9
2016-Jul-23 06:27N 38°18' E 015°40'2915.3
2016-Jul-23 04:33N 38°46' E 015°27'1615.6
2016-Jul-23 03:33N 39°00' E 015°20'7615.2
2016-Jul-22 22:33N 40°12' E 014°47'71 3.4
2016-Jul-22 01:33N 39°05' E 015°20'1615.4
2016-Jul-22 00:31N 38°50' E 015°26'1515.4
2016-Jul-21 23:33N 38°36' E 015°34'1515.1
2016-Jul-21 22:33N 38°22' E 015°41'1111.5
2016-Jul-21 21:33N 38°11' E 015°37'1313.5
2016-Jul-21 20:33N 37°59' E 015°31'18 1.5
2016-Jul-21 08:32N 37°43' E 015°19'1616.5
2016-Jul-21 07:33N 37°58' E 015°28'1515.1
2016-Jul-21 06:34N 38°12' E 015°36'1313.2
2016-Jul-21 05:33N 38°25' E 015°37'1615.4
2016-Jul-21 04:33N 38°39' E 015°31'2015.3
2016-Jul-21 03:15N 38°58' E 015°22'1 0.0
2016-Jul-20 02:06N 38°57' E 015°23'1015.2
2016-Jul-20 01:27N 38°48' E 015°28'1415.4
2016-Jul-20 00:33N 38°35' E 015°34'1515.1
2016-Jul-19 23:33N 38°21' E 015°41'1211.9
2016-Jul-19 22:33N 38°10' E 015°37'1515.3
2016-Jul-19 21:33N 37°56' E 015°29'14 1.1
2016-Jul-19 08:07N 37°44' E 015°20'916.2
2016-Jul-19 07:32N 37°52' E 015°25'3812.8
2016-Jul-19 04:33N 38°30' E 015°35'1515.2
2016-Jul-19 03:33N 38°44' E 015°28'1615.4
2016-Jul-19 02:31N 38°59' E 015°21'  

Dump ship's entire track history